createdAt,value
2023-06-19T00:02:14.939Z,23.46
2023-06-19T00:04:41.578Z,23.46
2023-06-19T00:07:08.218Z,23.46
2023-06-19T00:09:34.899Z,23.44
2023-06-19T00:12:02.628Z,23.46
2023-06-19T00:14:29.351Z,23.46
2023-06-19T00:16:56.120Z,23.46
2023-06-19T00:19:23.839Z,23.43
2023-06-19T00:21:50.533Z,23.42
2023-06-19T00:24:17.280Z,23.41
2023-06-19T00:26:44.646Z,23.37
2023-06-19T00:29:11.212Z,23.34
2023-06-19T00:31:38.451Z,23.34
2023-06-19T00:34:05.123Z,23.32
2023-06-19T00:36:31.772Z,23.27
2023-06-19T00:38:58.411Z,23.26
2023-06-19T00:41:27.429Z,23.24
2023-06-19T00:43:55.300Z,23.22
2023-06-19T00:46:22.211Z,23.20
2023-06-19T00:48:49.349Z,23.17
2023-06-19T00:51:16.030Z,23.13
2023-06-19T00:53:43.115Z,23.12
2023-06-19T00:56:09.944Z,23.09
2023-06-19T00:58:37.024Z,23.07
2023-06-19T01:01:08.622Z,23.02
2023-06-19T01:03:37.697Z,22.97
2023-06-19T01:06:10.802Z,22.95
2023-06-19T01:08:51.214Z,22.93
2023-06-19T01:11:26.589Z,22.88
2023-06-19T01:14:02.545Z,22.84
2023-06-19T01:16:31.072Z,22.81
2023-06-19T01:18:59.246Z,22.77
2023-06-19T01:21:25.983Z,22.68
2023-06-19T01:23:52.701Z,22.60
2023-06-19T01:26:19.753Z,22.56
2023-06-19T01:28:47.468Z,22.53
2023-06-19T01:31:23.747Z,22.51
2023-06-19T01:33:53.475Z,22.48
2023-06-19T01:36:21.748Z,22.43
2023-06-19T01:38:49.881Z,22.40
2023-06-19T01:41:18.525Z,22.37
2023-06-19T01:43:46.756Z,22.30
2023-06-19T01:46:13.353Z,22.25
2023-06-19T01:48:40.960Z,22.20
2023-06-19T01:51:09.030Z,22.12
2023-06-19T01:53:36.108Z,22.07
2023-06-19T01:56:03.096Z,22.01
2023-06-19T01:58:29.744Z,21.96
2023-06-19T02:00:56.423Z,21.94
2023-06-19T02:03:23.524Z,21.94
2023-06-19T02:05:50.221Z,21.91
2023-06-19T02:08:16.792Z,21.86
2023-06-19T02:10:43.607Z,21.82
2023-06-19T02:13:10.503Z,21.78
2023-06-19T02:18:31.365Z,21.75
2023-06-19T02:20:57.949Z,21.73
2023-06-19T02:23:24.826Z,21.72
2023-06-19T02:25:51.609Z,21.70
2023-06-19T02:28:18.404Z,21.69
2023-06-19T02:30:45.069Z,21.66
2023-06-19T02:33:11.709Z,21.66
2023-06-19T02:35:38.481Z,21.63
2023-06-19T02:38:05.809Z,21.60
2023-06-19T02:40:32.518Z,21.61
2023-06-19T02:42:59.267Z,21.59
2023-06-19T02:45:26.269Z,21.55
2023-06-19T02:47:53.617Z,21.54
2023-06-19T02:50:20.392Z,21.52
2023-06-19T02:52:47.098Z,21.50
2023-06-19T02:55:13.878Z,21.49
2023-06-19T02:57:40.658Z,21.46
2023-06-19T03:00:09.176Z,21.49
2023-06-19T03:02:36.100Z,21.52
2023-06-19T03:05:03.930Z,21.51
2023-06-19T03:07:30.494Z,21.50
2023-06-19T03:09:57.116Z,21.52
2023-06-19T03:12:23.791Z,21.50
2023-06-19T03:14:50.673Z,21.47
2023-06-19T03:17:17.492Z,21.45
2023-06-19T03:19:44.397Z,21.45
2023-06-19T03:22:11.014Z,21.45
2023-06-19T03:24:37.650Z,21.43
2023-06-19T03:27:04.676Z,21.43
2023-06-19T03:29:31.369Z,21.40
2023-06-19T03:31:57.925Z,21.39
2023-06-19T03:34:24.514Z,21.36
2023-06-19T03:36:51.272Z,21.34
2023-06-19T03:39:17.820Z,21.35
2023-06-19T03:41:44.433Z,21.37
2023-06-19T03:44:11.012Z,21.37
2023-06-19T03:46:37.769Z,21.35
2023-06-19T03:49:05.902Z,21.34
2023-06-19T03:51:32.601Z,21.31
2023-06-19T03:53:59.239Z,21.29
2023-06-19T03:56:26.126Z,21.29
2023-06-19T03:58:52.966Z,21.29
2023-06-19T04:01:19.728Z,21.30
2023-06-19T04:03:49.415Z,21.29
2023-06-19T04:06:16.204Z,21.27
2023-06-19T04:08:43.099Z,21.28
2023-06-19T04:11:09.690Z,21.26
2023-06-19T04:13:36.605Z,21.24
2023-06-19T04:16:03.732Z,21.19
2023-06-19T04:18:30.481Z,21.16
2023-06-19T04:20:57.369Z,21.10
2023-06-19T04:23:24.144Z,21.10
2023-06-19T04:25:50.776Z,21.06
2023-06-19T04:28:17.519Z,21.05
2023-06-19T04:30:44.293Z,21.07
2023-06-19T04:33:11.014Z,21.07
2023-06-19T04:35:43.457Z,21.06
2023-06-19T04:38:11.151Z,21.06
2023-06-19T04:40:38.014Z,21.07
2023-06-19T04:43:06.758Z,21.07
2023-06-19T04:45:33.456Z,21.05
2023-06-19T04:48:04.749Z,21.02
2023-06-19T04:50:31.717Z,20.99
2023-06-19T04:52:58.316Z,20.99
2023-06-19T04:55:26.754Z,21.00
2023-06-19T04:57:53.969Z,20.97
2023-06-19T05:00:20.943Z,20.94
2023-06-19T05:02:48.574Z,20.91
2023-06-19T05:05:15.596Z,20.92
2023-06-19T05:07:42.523Z,20.93
2023-06-19T05:10:14.989Z,20.92
2023-06-19T05:12:41.729Z,20.94
2023-06-19T05:15:09.048Z,20.93
2023-06-19T05:17:36.041Z,20.95
2023-06-19T05:20:02.830Z,20.99
2023-06-19T05:22:29.805Z,20.98
2023-06-19T05:24:56.490Z,20.97
2023-06-19T05:27:23.128Z,20.97
2023-06-19T05:29:49.701Z,20.93
2023-06-19T05:32:16.548Z,20.90
2023-06-19T05:34:43.424Z,20.91
2023-06-19T05:37:10.144Z,20.93
2023-06-19T05:39:36.808Z,20.95
2023-06-19T05:42:03.561Z,20.96
2023-06-19T05:44:30.378Z,20.97
2023-06-19T05:46:57.234Z,20.95
2023-06-19T05:49:24.440Z,20.95
2023-06-19T05:51:51.069Z,20.95
2023-06-19T05:54:21.112Z,20.93
2023-06-19T05:56:51.042Z,20.92
2023-06-19T05:59:17.954Z,20.91
2023-06-19T06:01:45.491Z,20.90
2023-06-19T06:04:12.383Z,20.91
2023-06-19T06:06:41.676Z,20.93
2023-06-19T06:09:12.269Z,20.89
2023-06-19T06:11:38.942Z,20.80
2023-06-19T06:14:05.742Z,20.75
2023-06-19T06:16:32.785Z,20.72
2023-06-19T06:19:00.041Z,20.69
2023-06-19T06:21:26.914Z,20.71
2023-06-19T06:23:54.379Z,20.71
2023-06-19T06:26:21.193Z,20.73
2023-06-19T06:28:47.848Z,20.78
2023-06-19T06:31:14.444Z,20.88
2023-06-19T06:33:41.558Z,20.95
2023-06-19T06:36:08.985Z,21.06
2023-06-19T06:38:35.825Z,21.16
2023-06-19T06:41:03.172Z,21.34
2023-06-19T06:43:30.041Z,21.55
2023-06-19T06:46:01.781Z,21.62
2023-06-19T06:48:31.115Z,21.72
2023-06-19T06:51:00.383Z,21.83
2023-06-19T06:53:27.195Z,21.81
2023-06-19T06:55:53.895Z,21.87
2023-06-19T06:58:20.551Z,21.86
2023-06-19T07:00:55.133Z,21.97
2023-06-19T07:03:22.130Z,22.01
2023-06-19T07:05:49.523Z,22.10
2023-06-19T07:08:16.379Z,22.21
2023-06-19T07:10:43.278Z,22.26
2023-06-19T07:13:10.763Z,22.29
2023-06-19T07:15:37.436Z,22.34
2023-06-19T07:18:04.460Z,22.44
2023-06-19T07:20:31.188Z,22.50
2023-06-19T07:22:58.204Z,22.45
2023-06-19T07:25:26.712Z,22.52
2023-06-19T07:27:53.924Z,22.59
2023-06-19T07:30:21.958Z,22.63
2023-06-19T07:32:49.562Z,22.67
2023-06-19T07:35:16.774Z,22.66
2023-06-19T07:37:43.985Z,22.66
2023-06-19T07:40:11.577Z,22.70
2023-06-19T07:42:38.382Z,22.68
2023-06-19T07:45:05.825Z,22.67
2023-06-19T07:47:33.049Z,22.72
2023-06-19T07:49:59.739Z,22.86
2023-06-19T07:52:27.814Z,22.91
2023-06-19T07:54:56.760Z,22.97
2023-06-19T07:57:25.358Z,23.05
2023-06-19T07:59:53.999Z,23.20
2023-06-19T08:02:21.035Z,23.16
2023-06-19T08:04:48.278Z,23.15
2023-06-19T08:07:15.293Z,23.29
2023-06-19T08:09:42.598Z,23.33
2023-06-19T08:12:12.255Z,23.37
2023-06-19T08:14:39.754Z,23.47
2023-06-19T08:17:07.104Z,23.59
2023-06-19T08:19:44.490Z,23.68
2023-06-19T08:22:11.409Z,23.67
2023-06-19T08:25:00.087Z,23.75
2023-06-19T08:27:27.214Z,23.74
2023-06-19T08:29:53.993Z,23.89
2023-06-19T08:32:27.079Z,23.93
2023-06-19T08:34:53.972Z,23.95
2023-06-19T08:37:20.757Z,23.94
2023-06-19T08:39:48.733Z,23.92
2023-06-19T08:42:19.267Z,24.03
2023-06-19T08:44:46.286Z,24.07
2023-06-19T08:47:14.370Z,24.18
2023-06-19T08:49:41.384Z,24.20
2023-06-19T08:52:11.198Z,24.26
2023-06-19T08:54:49.445Z,24.32
2023-06-19T08:57:16.318Z,24.27
2023-06-19T08:59:51.251Z,24.37
2023-06-19T09:02:18.317Z,24.33
2023-06-19T09:04:45.093Z,24.36
2023-06-19T09:07:14.334Z,24.39
2023-06-19T09:09:47.444Z,24.52
2023-06-19T09:12:15.495Z,24.56
2023-06-19T09:14:44.881Z,24.55
2023-06-19T09:17:14.823Z,24.52
2023-06-19T09:19:49.636Z,24.63
2023-06-19T09:22:20.297Z,24.65
2023-06-19T09:24:47.281Z,24.65
2023-06-19T09:27:17.120Z,24.57
2023-06-19T09:29:45.592Z,24.63
2023-06-19T09:32:29.694Z,24.61
2023-06-19T09:34:59.913Z,24.53
2023-06-19T09:37:31.418Z,24.58
2023-06-19T09:40:11.226Z,24.62
2023-06-19T09:42:48.313Z,24.68
2023-06-19T09:45:20.191Z,24.58
2023-06-19T09:47:50.549Z,24.66
2023-06-19T09:50:19.192Z,24.72
2023-06-19T09:52:46.589Z,24.82
2023-06-19T09:55:17.135Z,24.82
2023-06-19T09:57:46.475Z,24.92
2023-06-19T10:00:23.310Z,25.01
2023-06-19T10:02:55.016Z,25.26
2023-06-19T10:05:45.303Z,25.32
2023-06-19T10:08:32.029Z,25.32
2023-06-19T10:11:04.863Z,25.28
2023-06-19T10:13:44.262Z,25.41
2023-06-19T10:16:30.195Z,25.51
2023-06-19T10:18:58.638Z,25.50
2023-06-19T10:21:25.996Z,25.66
2023-06-19T10:23:58.745Z,25.60
2023-06-19T10:26:34.819Z,25.64
2023-06-19T10:29:10.850Z,25.62
2023-06-19T10:31:44.279Z,25.69
2023-06-19T10:34:13.561Z,25.71
2023-06-19T10:36:40.486Z,25.81
2023-06-19T10:39:08.685Z,25.93
2023-06-19T10:41:46.205Z,25.97
2023-06-19T10:44:17.927Z,25.98
2023-06-19T10:46:46.105Z,26.03
2023-06-19T10:49:18.254Z,26.07
2023-06-19T10:51:49.432Z,26.12
2023-06-19T10:54:17.409Z,26.20
2023-06-19T10:56:45.964Z,26.18
2023-06-19T10:59:13.583Z,26.20
2023-06-19T11:01:43.567Z,26.23
2023-06-19T11:04:12.274Z,26.30
2023-06-19T11:06:45.318Z,26.36
2023-06-19T11:09:19.522Z,26.42
2023-06-19T11:11:48.149Z,26.40
2023-06-19T11:14:18.719Z,26.46
2023-06-19T11:16:49.087Z,26.53
2023-06-19T11:19:25.322Z,26.64
2023-06-19T11:21:53.345Z,26.58
2023-06-19T11:24:29.122Z,26.59
2023-06-19T11:26:59.975Z,26.68
2023-06-19T11:29:30.375Z,26.60
2023-06-19T11:32:09.921Z,26.65
2023-06-19T11:34:38.036Z,26.72
2023-06-19T11:37:22.113Z,26.70
2023-06-19T11:39:50.829Z,26.85
2023-06-19T11:42:20.979Z,26.86
2023-06-19T11:44:56.543Z,26.81
2023-06-19T11:47:23.931Z,26.93
2023-06-19T11:49:53.195Z,26.94
2023-06-19T11:52:20.283Z,27.10
2023-06-19T11:54:46.969Z,27.11
2023-06-19T11:57:14.137Z,27.14
2023-06-19T11:59:41.999Z,27.13
2023-06-19T12:02:10.034Z,27.07
2023-06-19T12:04:37.889Z,27.11
2023-06-19T12:07:05.476Z,27.02
2023-06-19T12:09:33.377Z,27.00
2023-06-19T12:12:00.976Z,27.13
2023-06-19T12:14:27.971Z,27.24
2023-06-19T12:16:54.898Z,27.36
2023-06-19T12:19:21.654Z,27.47
2023-06-19T12:21:48.307Z,27.42
2023-06-19T12:24:15.175Z,27.41
2023-06-19T12:26:41.928Z,27.40
2023-06-19T12:29:09.745Z,27.34
2023-06-19T12:31:42.454Z,27.30
2023-06-19T12:34:28.945Z,27.31
2023-06-19T12:36:58.638Z,27.42
2023-06-19T12:39:26.205Z,27.40
2023-06-19T12:41:53.734Z,27.42
2023-06-19T12:44:26.125Z,27.58
2023-06-19T12:46:54.314Z,27.71
2023-06-19T12:49:22.468Z,27.84
2023-06-19T12:51:52.835Z,27.88
2023-06-19T12:54:20.231Z,27.94
2023-06-19T12:56:47.011Z,28.05
2023-06-19T12:59:13.953Z,28.14
2023-06-19T13:01:40.972Z,28.33
2023-06-19T13:04:07.829Z,28.30
2023-06-19T13:06:35.918Z,28.34
2023-06-19T13:09:06.298Z,28.44
2023-06-19T13:11:35.444Z,28.37
2023-06-19T13:14:04.940Z,28.18
2023-06-19T13:16:45.623Z,28.16
2023-06-19T13:19:17.678Z,28.00
2023-06-19T13:21:47.523Z,28.03
2023-06-19T13:24:14.539Z,28.09
2023-06-19T13:26:45.421Z,28.07
2023-06-19T13:29:15.631Z,28.00
2023-06-19T13:31:42.527Z,28.10
2023-06-19T13:34:09.450Z,28.14
2023-06-19T13:36:36.216Z,28.20
2023-06-19T13:39:04.216Z,28.29
2023-06-19T13:41:34.210Z,28.36
2023-06-19T13:44:01.945Z,28.43
2023-06-19T13:46:29.876Z,28.39
2023-06-19T13:48:56.590Z,28.28
2023-06-19T13:51:24.050Z,28.27
2023-06-19T13:53:52.764Z,28.32
2023-06-19T13:56:19.667Z,28.32
2023-06-19T13:58:47.577Z,28.29
2023-06-19T14:01:17.153Z,28.38
2023-06-19T14:03:44.609Z,28.44
2023-06-19T14:06:11.870Z,28.54
2023-06-19T14:08:48.423Z,28.50
2023-06-19T14:11:15.282Z,28.47
2023-06-19T14:13:42.050Z,28.60
2023-06-19T14:16:08.974Z,28.53
2023-06-19T14:18:38.138Z,28.48
2023-06-19T14:21:06.419Z,28.51
2023-06-19T14:23:35.368Z,28.56
2023-06-19T14:26:05.581Z,28.65
2023-06-19T14:28:36.224Z,28.78
2023-06-19T14:31:02.994Z,28.90
2023-06-19T14:33:29.694Z,28.74
2023-06-19T14:36:02.840Z,28.74
2023-06-19T14:38:33.080Z,28.74
2023-06-19T14:41:04.290Z,28.73
2023-06-19T14:43:33.510Z,28.64
2023-06-19T14:46:00.870Z,28.71
2023-06-19T14:48:28.259Z,28.76
2023-06-19T14:50:54.908Z,28.74
2023-06-19T14:53:21.636Z,28.79
2023-06-19T14:55:48.822Z,28.82
2023-06-19T14:58:17.006Z,28.88
2023-06-19T15:00:43.979Z,28.89
2023-06-19T15:03:11.260Z,28.95
2023-06-19T15:05:38.081Z,28.95
2023-06-19T15:08:07.117Z,28.97
2023-06-19T15:10:34.023Z,28.99
2023-06-19T15:13:05.018Z,29.01
2023-06-19T15:15:32.016Z,29.06
2023-06-19T15:17:58.977Z,29.12
2023-06-19T15:20:25.941Z,29.21
2023-06-19T15:22:55.850Z,29.38
2023-06-19T15:25:24.980Z,29.31
2023-06-19T15:27:54.066Z,29.26
2023-06-19T15:30:20.830Z,29.31
2023-06-19T15:32:48.497Z,29.32
2023-06-19T15:35:15.379Z,29.33
2023-06-19T15:37:42.512Z,29.25
2023-06-19T15:40:09.742Z,29.12
2023-06-19T15:42:38.265Z,29.06
2023-06-19T15:45:05.835Z,29.03
2023-06-19T15:47:35.453Z,29.13
2023-06-19T15:50:06.068Z,29.23
2023-06-19T15:52:35.220Z,29.25
2023-06-19T15:55:02.083Z,29.26
2023-06-19T15:57:28.842Z,29.35
2023-06-19T15:59:55.456Z,29.34
2023-06-19T16:02:22.141Z,29.39
2023-06-19T16:04:49.353Z,29.44
2023-06-19T16:07:16.119Z,29.44
2023-06-19T16:09:54.444Z,29.46
2023-06-19T16:12:22.251Z,29.35
2023-06-19T16:14:48.935Z,29.26
2023-06-19T16:17:16.771Z,29.26
2023-06-19T16:19:43.928Z,29.20
2023-06-19T16:22:12.461Z,29.14
2023-06-19T16:24:41.025Z,29.18
2023-06-19T16:27:08.359Z,29.30
2023-06-19T16:29:34.987Z,29.39
2023-06-19T16:32:09.520Z,29.37
2023-06-19T16:34:37.236Z,29.29
2023-06-19T16:37:04.405Z,29.23
2023-06-19T16:39:31.078Z,29.25
2023-06-19T16:41:57.762Z,29.30
2023-06-19T16:44:24.445Z,29.21
2023-06-19T16:46:51.249Z,29.17
2023-06-19T16:49:18.757Z,29.15
2023-06-19T16:51:45.948Z,29.25
2023-06-19T16:54:12.780Z,29.34
2023-06-19T16:56:39.547Z,29.43
2023-06-19T16:59:11.430Z,29.43
2023-06-19T17:01:38.339Z,29.39
2023-06-19T17:04:06.984Z,29.39
2023-06-19T17:06:33.770Z,29.45
2023-06-19T17:09:00.780Z,29.39
2023-06-19T17:11:28.147Z,29.40
2023-06-19T17:13:55.036Z,29.45
2023-06-19T17:16:22.205Z,29.51
2023-06-19T17:18:49.283Z,29.51
2023-06-19T17:21:16.087Z,29.53
2023-06-19T17:23:43.054Z,29.57
2023-06-19T17:26:09.788Z,29.61
2023-06-19T17:28:36.400Z,29.67
2023-06-19T17:31:08.168Z,29.74
2023-06-19T17:33:35.458Z,29.78
2023-06-19T17:36:04.062Z,29.87
2023-06-19T17:38:30.747Z,29.97
2023-06-19T17:40:57.622Z,29.99
2023-06-19T17:43:24.228Z,29.95
2023-06-19T17:45:51.407Z,29.82
2023-06-19T17:48:18.148Z,29.75
2023-06-19T17:50:47.012Z,29.67
2023-06-19T17:53:13.699Z,29.69
2023-06-19T17:55:43.486Z,29.56
2023-06-19T17:58:10.553Z,29.39
2023-06-19T18:00:37.242Z,29.18
2023-06-19T18:03:05.661Z,29.19
2023-06-19T18:05:32.388Z,29.01
2023-06-19T18:07:59.138Z,28.72
2023-06-19T18:10:26.106Z,28.51
2023-06-19T18:12:52.905Z,28.39
2023-06-19T18:15:19.580Z,28.49
2023-06-19T18:17:49.169Z,28.60
2023-06-19T18:20:16.186Z,28.60
2023-06-19T18:22:44.520Z,28.59
2023-06-19T18:25:11.457Z,28.51
2023-06-19T18:27:40.251Z,28.36
2023-06-19T18:30:08.767Z,28.07
2023-06-19T18:32:35.532Z,27.78
2023-06-19T18:35:02.719Z,27.56
2023-06-19T18:37:29.413Z,27.50
2023-06-19T18:39:56.180Z,27.45
2023-06-19T18:42:24.737Z,27.35
2023-06-19T18:44:51.778Z,27.28
2023-06-19T18:47:18.464Z,27.17
2023-06-19T18:49:45.418Z,27.12
2023-06-19T18:52:12.489Z,26.91
2023-06-19T18:54:39.234Z,26.89
2023-06-19T18:57:06.378Z,26.95
2023-06-19T18:59:35.207Z,26.89
2023-06-19T19:02:02.538Z,26.83
2023-06-19T19:04:29.583Z,26.75
2023-06-19T19:06:56.189Z,26.68
2023-06-19T19:09:23.287Z,26.46
2023-06-19T19:11:51.166Z,26.41
2023-06-19T19:14:17.943Z,26.20
2023-06-19T19:16:44.990Z,26.25
2023-06-19T19:19:11.638Z,26.25
2023-06-19T19:21:39.269Z,26.04
2023-06-19T19:24:05.951Z,26.09
2023-06-19T19:26:35.907Z,26.15
2023-06-19T19:29:02.638Z,26.03
2023-06-19T19:31:29.220Z,25.92
2023-06-19T19:33:55.800Z,25.91
2023-06-19T19:36:22.519Z,25.84
2023-06-19T19:38:49.446Z,25.80
2023-06-19T19:41:16.280Z,25.67
2023-06-19T19:43:43.259Z,25.60
2023-06-19T19:46:09.960Z,25.68
2023-06-19T19:48:53.398Z,25.68
2023-06-19T19:51:32.434Z,25.63
2023-06-19T19:54:14.263Z,25.64
2023-06-19T19:56:48.957Z,25.57
2023-06-19T19:59:15.853Z,25.54
2023-06-19T20:01:42.593Z,25.56
2023-06-19T20:04:17.654Z,25.57
2023-06-19T20:06:47.138Z,25.55
2023-06-19T20:09:26.974Z,25.53
2023-06-19T20:12:19.874Z,25.48
2023-06-19T20:15:01.894Z,25.39
2023-06-19T20:17:29.015Z,25.30
2023-06-19T20:19:55.822Z,25.22
2023-06-19T20:22:22.520Z,25.12
2023-06-19T20:25:01.574Z,24.99
2023-06-19T20:27:28.256Z,24.90
2023-06-19T20:30:10.757Z,24.74
2023-06-19T20:32:43.654Z,24.62
2023-06-19T20:35:33.419Z,24.58
2023-06-19T20:38:00.256Z,24.48
2023-06-19T20:40:51.693Z,24.41
2023-06-19T20:43:32.498Z,24.38
2023-06-19T20:46:04.165Z,24.32
2023-06-19T20:48:31.173Z,24.22
2023-06-19T20:50:58.745Z,24.16
2023-06-19T20:53:27.404Z,24.13
2023-06-19T20:55:54.430Z,24.12
2023-06-19T20:58:24.320Z,24.09
2023-06-19T21:00:51.056Z,24.05
2023-06-19T21:03:20.563Z,24.03
2023-06-19T21:05:50.762Z,24.00
2023-06-19T21:08:17.365Z,23.98
2023-06-19T21:10:44.225Z,23.95
2023-06-19T21:15:44.449Z,23.88
2023-06-19T21:18:11.348Z,23.86
2023-06-19T21:20:37.998Z,23.83
2023-06-19T21:23:04.622Z,23.80
2023-06-19T21:25:31.312Z,23.75
2023-06-19T21:27:59.527Z,23.73
2023-06-19T21:30:26.674Z,23.70
2023-06-19T21:32:53.758Z,23.66
2023-06-19T21:35:20.493Z,23.61
2023-06-19T21:37:47.047Z,23.57
2023-06-19T21:40:13.828Z,23.53
2023-06-19T21:42:41.136Z,23.50
2023-06-19T21:45:08.643Z,23.47
2023-06-19T21:47:35.381Z,23.48
2023-06-19T21:50:02.017Z,23.43
2023-06-19T21:52:28.621Z,23.41
2023-06-19T21:54:55.198Z,23.37
2023-06-19T21:57:21.753Z,23.37
2023-06-19T21:59:48.344Z,23.36
2023-06-19T22:02:15.230Z,23.33
2023-06-19T22:04:41.914Z,23.32
2023-06-19T22:07:08.715Z,23.31
2023-06-19T22:09:35.414Z,23.27
2023-06-19T22:12:02.164Z,23.23
2023-06-19T22:14:29.026Z,23.19
2023-06-19T22:16:55.935Z,23.14
2023-06-19T22:19:24.704Z,23.14
2023-06-19T22:21:51.476Z,23.10
2023-06-19T22:24:18.148Z,23.07
2023-06-19T22:26:44.899Z,23.03
2023-06-19T22:29:14.120Z,22.99
2023-06-19T22:31:41.380Z,22.99
2023-06-19T22:34:08.325Z,22.96
2023-06-19T22:36:34.929Z,22.95
2023-06-19T22:39:02.106Z,22.92
2023-06-19T22:41:28.946Z,22.91
2023-06-19T22:43:55.680Z,22.90
2023-06-19T22:46:22.467Z,22.87
2023-06-19T22:48:51.854Z,22.87
2023-06-19T22:51:18.668Z,22.84
2023-06-19T22:53:45.378Z,22.82
2023-06-19T22:56:12.062Z,22.82
2023-06-19T22:58:40.999Z,22.81
2023-06-19T23:01:09.636Z,22.75
2023-06-19T23:03:43.668Z,22.74
2023-06-19T23:06:11.697Z,22.70
2023-06-19T23:08:41.759Z,22.67
2023-06-19T23:11:09.616Z,22.66
2023-06-19T23:13:40.172Z,22.66
2023-06-19T23:16:11.049Z,22.63
2023-06-19T23:18:38.385Z,22.62
2023-06-19T23:21:06.472Z,22.60
2023-06-19T23:23:34.001Z,22.59
2023-06-19T23:26:01.704Z,22.57
2023-06-19T23:28:32.615Z,22.55
2023-06-19T23:31:00.353Z,22.52
2023-06-19T23:33:27.087Z,22.51
2023-06-19T23:35:57.757Z,22.51
2023-06-19T23:38:27.708Z,22.48
2023-06-19T23:40:55.389Z,22.46
2023-06-19T23:43:22.123Z,22.45
2023-06-19T23:45:48.896Z,22.45
2023-06-19T23:48:18.832Z,22.42
2023-06-19T23:50:51.282Z,22.40
2023-06-19T23:53:17.965Z,22.39
2023-06-19T23:55:44.827Z,22.37
2023-06-19T23:58:12.009Z,22.36
